• Join FlightAware (Why Join?)
  • Login
  • US Flag 
04:16PM EDT


 

Airport Tracker/Info


-or-


 

Live Flight TrackerFlight Track Log ✈ AAL1432 ✈ 11-Jul-2013 ✈ KDFW - KDCA

Flight Track Log - Related Links

Times and Time Zones

All times are in EDT time to prevent confusion due to time zone crossing. See the AAL1432 flight status page for this flight to view local times or setup timezone preferences in your user account.

Time Position Orientation Groundspeed Altitude Reporting Facility
EDT Latitude Longitude Course Direction KTS MPH feet Rate Location/Type
10:48PM 32.8580 -97.0290 169° South 163 188 2,300  Level FlightAware
10:48PM 32.8510 -97.0270 167° South 168 193 2,500 900 Climbing FlightAware
10:49PM 32.8240 -97.0140 158° South 197 227 3,000 960 Climbing FlightAware
10:49PM 32.7970 -97.0020 160° South 226 260 3,500 1,200 Climbing FlightAware
10:49PM 32.7850 -96.9940 151° Southeast 241 277 3,800 1,200 Climbing FlightAware
10:49PM 32.7760 -96.9760 121° Southeast 253 291 4,100 1,620 Climbing FlightAware
10:50PM 32.7660 -96.9390 108° East 258 297 5,000 1,920 Climbing FlightAware
10:51PM 32.7670 -96.8800 89° East 274 315 6,300 2,040 Climbing FlightAware
10:51PM 32.7690 -96.8400 87° East 279 321 7,300 2,160 Climbing FlightAware
10:51PM 32.7750 -96.8140 75° East 285 328 7,900 2,340 Climbing FlightAware
10:52PM 32.7920 -96.7740 63° Northeast 286 329 9,100 2,400 Climbing FlightAware
10:52PM 32.8150 -96.7160 65° Northeast 294 338 10,700 1,680 Climbing FlightAware
10:53PM 32.8430 -96.6460 65° Northeast 340 391 11,500 1,200 Climbing FlightAware
10:54PM 32.8720 -96.5760 64° Northeast 370 426 12,400 1,800 Climbing FlightAware
10:55PM 32.9030 -96.4960 65° Northeast 382 440 14,000 2,280 Climbing FlightAware
10:55PM 32.9360 -96.4160 64° Northeast 391 450 15,600 2,220 Climbing FlightAware
10:56PM 32.9630 -96.3440 66° East 395 455 17,000 2,160 Climbing FlightAware
10:57PM 32.9800 -96.2610 76° East 403 464 18,400 1,980 Climbing FlightAware
10:57PM 32.9930 -96.1610 81° East 412 474 19,800 1,740 Climbing FlightAware
10:58PM 33.0040 -96.0840 80° East 422 486 20,700 1,740 Climbing FlightAware
10:58PM 33.0160 -95.9960 81° East 428 493 21,900 1,560 Climbing FlightAware
10:59PM 33.0310 -95.8880 81° East 440 506 22,900 1,260 Climbing FlightAware
11:00PM 33.0440 -95.7900 81° East 451 519 23,800 1,320 Climbing FlightAware
11:01PM 33.0720 -95.6880 72° East 456 525 24,800 1,380 Climbing FlightAware
11:01PM 33.1110 -95.5860 65° Northeast 461 531 25,800 780 Climbing FlightAware
11:02PM 33.1540 -95.4680 66° East 466 536 26,200 1,200 Climbing FlightAware
11:03PM 33.1990 -95.3470 66° East 478 550 27,900 1,200 Climbing FlightAware
11:04PM 33.2330 -95.2560 66° East 479 551 28,000 1,320 Climbing FlightAware
11:05PM 33.2950 -95.0870 66° East 477 549 30,300 1,320 Climbing FlightAware
11:05PM 33.3240 -95.0090 66° East 477 549 30,300 1,200 Level FlightAware
11:06PM 33.3650 -94.8940 67° East 477 549 31,900 1,140 Climbing FlightAware
11:07PM 33.4090 -94.7770 66° East 478 550 32,200 180 Climbing FlightAware
11:08PM 33.4360 -94.7030 66° East 478 550 32,200  Level FlightAware
11:08PM 33.4730 -94.6040 66° East 478 550 32,200 -7,380 Level FlightAware
11:09PM 32.9750 -96.2740 251° West 401 461 19,500 -8,340 Descending FlightAware
11:10PM 32.9890 -96.2080 76° East 401 461 19,500  Level FlightAware
11:11PM 33.0090 -96.1120 76° East 401 461 19,500  Level FlightAware
11:12PM 33.0420 -95.9570 76° East 401 461 19,500 5,040 Level FlightAware
11:14PM 33.7840 -93.7180 68° East 482 555 37,000 6,600 Climbing FlightAware
11:15PM 33.8120 -93.6400 67° East 482 555 37,000  Level FlightAware
11:16PM 33.8390 -93.5640 67° East 482 555 37,000  Level FlightAware
11:17PM 33.9060 -93.3710 67° East 484 557 37,000  Level FlightAware
11:17PM 33.9320 -93.2950 68° East 484 557 37,000  Level FlightAware
11:18PM 33.9680 -93.1930 67° East 484 557 37,000  Level FlightAware
11:19PM 33.9960 -93.1150 67° East 484 557 37,000  Level FlightAware
11:19PM 34.0210 -93.0430 67° East 484 557 37,000  Level FlightAware
11:20PM 34.0570 -92.9420 67° East 484 557 37,000  Level FlightAware
11:21PM 34.0830 -92.8660 68° East 484 557 37,000  Level FlightAware
11:21PM 34.1100 -92.7890 67° East 484 557 37,000  Level FlightAware
11:22PM 34.1460 -92.6880 67° East 484 557 37,000  Level FlightAware
11:23PM 34.1730 -92.6120 67° East 484 557 37,000  Level FlightAware
11:23PM 34.1990 -92.5350 68° East 484 557 37,000  Level FlightAware
11:24PM 34.2350 -92.4340 67° East 484 557 37,000  Level FlightAware
11:25PM 34.2620 -92.3570 67° East 484 557 37,000  Level FlightAware
11:25PM 34.2890 -92.2790 67° East 484 557 37,000  Level FlightAware
11:26PM 34.3250 -92.1770 67° East 484 557 37,000  Level FlightAware
11:27PM 34.4467 -91.7650 67° East 471 542 37,000  Level Memphis Center
11:28PM 34.4897 -91.6372 68° East 465 535 37,000  Level Memphis Center
11:29PM 34.5369 -91.4842 69° East 470 541 37,000  Level Memphis Center
11:30PM 34.5883 -91.3358 67° East 470 541 37,000  Level Memphis Center
11:31PM 34.6375 -91.1875 68° East 470 541 37,000  Level Memphis Center
11:32PM 34.6842 -91.0392 69° East 470 541 37,000  Level Memphis Center
11:33PM 34.7331 -90.8903 68° East 464 534 37,000  Level Memphis Center
11:34PM 34.7814 -90.7289 70° East 464 534 37,000  Level Memphis Center
11:35PM 34.8297 -90.5797 68° East 464 534 37,000  Level Memphis Center
11:36PM 34.8781 -90.4306 68° East 469 540 37,000  Level Memphis Center
11:37PM 34.9258 -90.2836 68° East 469 540 37,000  Level Memphis Center
11:38PM 34.9736 -90.1317 69° East 469 540 37,000  Level Memphis Center
11:39PM 35.0233 -89.9792 68° East 474 545 37,000  Level Memphis Center
11:40PM 35.0731 -89.8419 66° East 474 545 37,000  Level Memphis Center
11:41PM 35.1244 -89.6894 68° East 479 551 37,000  Level Memphis Center
11:42PM 35.1756 -89.5392 67° East 479 551 37,000  Level Memphis Center
11:43PM 35.2289 -89.3911 66° East 479 551 37,000  Level Memphis Center
11:44PM 35.2839 -89.2303 67° East 479 551 37,000 120 Level Memphis Center
11:45PM 35.3367 -89.0769 67° East 479 551 37,300 660 Climbing Memphis Center
11:46PM 35.3892 -88.9308 66° East 479 551 38,400 840 Climbing Memphis Center
11:47PM 35.4294 -88.8128 67° East 479 551 39,000 60 Climbing Memphis Center
11:53PM 35.7340 -87.9150 67° East 470 541 39,000  Level FlightAware
11:54PM 35.7680 -87.8150 67° East 470 541 39,000  Level FlightAware
11:55PM 35.8040 -87.7030 68° East 476 548 39,000  Level FlightAware
11:55PM 35.8300 -87.6220 68° East 477 549 39,000  Level FlightAware
11:56PM 35.8690 -87.5060 67° East 479 551 39,000  Level FlightAware
11:57PM 35.9030 -87.4040 68° East 478 550 39,000  Level FlightAware
11:57PM 35.9434 -87.2802 68° East 480 552 39,000  Level FlightAware ADS-B
11:58PM 35.9690 -87.2021 68° East 481 554 39,000  Level FlightAware ADS-B
11:58PM 35.9942 -87.1249 68° East 481 554 39,000  Level FlightAware ADS-B
11:59PM 36.0192 -87.0485 68° East 481 554 39,000  Level FlightAware ADS-B
11:59PM 36.0442 -86.9712 68° East 482 555 39,000  Level FlightAware ADS-B
12:00AM 36.0694 -86.8940 68° East 482 555 39,000  Level FlightAware ADS-B
12:01AM 36.1048 -86.7847 68° East 484 557 39,000  Level FlightAware ADS-B
12:01AM 36.1298 -86.7069 68° East 485 558 39,000  Level FlightAware ADS-B
12:02AM 36.1572 -86.6225 68° East 486 559 39,000  Level FlightAware ADS-B
12:02AM 36.1825 -86.5443 68° East 487 560 39,000  Level FlightAware ADS-B
12:03AM 36.2110 -86.4570 68° East 488 562 39,000  Level FlightAware
12:03AM 36.2216 -86.4229 69° East 489 563 39,000  Level FlightAware ADS-B
12:04AM 36.2820 -86.2350 68° East 492 566 39,000  Level FlightAware
12:05AM 36.3090 -86.1500 68° East 493 567 39,000  Level FlightAware
12:05AM 36.3372 -86.0633 68° East 494 568 39,000  Level FlightAware ADS-B
12:06AM 36.3672 -85.9689 68° East 495 570 39,000  Level FlightAware ADS-B
12:06AM 36.3933 -85.8865 68° East 496 571 39,000  Level FlightAware ADS-B
12:07AM 36.4190 -85.8050 69° East 497 572 39,000  Level FlightAware
12:07AM 36.4353 -85.7542 68° East 497 572 39,000  Level FlightAware ADS-B
12:08AM 36.4607 -85.6738 69° East 500 575 39,000  Level FlightAware ADS-B
12:08AM 36.4861 -85.5931 69° East 501 577 39,000  Level FlightAware ADS-B
12:09AM 36.5122 -85.5102 69° East 503 579 39,000  Level FlightAware ADS-B
12:09AM 36.5420 -85.4144 69° East 504 580 39,000  Level FlightAware ADS-B
12:10AM 36.5674 -85.3323 69° East 505 581 39,000  Level FlightAware ADS-B
12:10AM 36.5924 -85.2511 69° East 505 581 39,000  Level FlightAware ADS-B
12:11AM 36.6179 -85.1681 69° East 506 582 39,000  Level FlightAware ADS-B
12:11AM 36.6439 -85.0838 69° East 506 582 39,000  Level FlightAware ADS-B
12:12AM 36.6691 -85.0019 69° East 505 581 39,000  Level FlightAware ADS-B
12:12AM 36.6950 -84.9174 69° East 506 582 39,000  Level FlightAware ADS-B
12:13AM 36.7235 -84.8244 69° East 506 582 39,000  Level FlightAware ADS-B
12:14AM 36.7493 -84.7402 69° East 506 582 39,000  Level FlightAware ADS-B
12:14AM 36.7762 -84.6520 69° East 506 582 39,000  Level FlightAware ADS-B
12:15AM 36.8014 -84.5695 69° East 506 582 39,000  Level FlightAware ADS-B
12:15AM 36.8265 -84.4872 69° East 507 583 39,000  Level FlightAware ADS-B
12:16AM 36.8514 -84.4043 69° East 508 585 39,000  Level FlightAware ADS-B
12:16AM 36.8766 -84.3194 70° East 509 586 39,000  Level FlightAware ADS-B
12:17AM 36.9011 -84.2363 70° East 509 586 39,000  Level FlightAware ADS-B
12:17AM 36.9264 -84.1517 69° East 509 586 39,000  Level FlightAware ADS-B
12:18AM 36.9512 -84.0689 69° East 511 588 39,000  Level FlightAware ADS-B
12:18AM 36.9758 -83.9857 70° East 512 589 39,000  Level FlightAware ADS-B
12:19AM 37.0034 -83.8924 70° East 513 590 39,000  Level FlightAware ADS-B
12:19AM 37.0283 -83.8078 70° East 513 590 39,000  Level FlightAware ADS-B
12:20AM 37.0533 -83.7235 70° East 512 589 39,000  Level FlightAware ADS-B
12:20AM 37.0784 -83.6384 70° East 512 589 39,000  Level FlightAware ADS-B
12:21AM 37.1140 -83.5173 70° East 512 589 39,000  Level FlightAware ADS-B
12:21AM 37.1383 -83.4336 70° East 512 589 39,000  Level FlightAware ADS-B
12:22AM 37.1626 -83.3483 70° East 512 589 39,000  Level FlightAware ADS-B
12:22AM 37.1879 -83.2599 70° East 513 590 39,000  Level FlightAware ADS-B
12:23AM 37.2120 -83.1759 70° East 512 589 39,000  Level FlightAware ADS-B
12:24AM 37.2396 -83.0797 70° East 512 589 39,000  Level FlightAware ADS-B
12:24AM 37.2643 -82.9933 70° East 514 592 39,000  Level FlightAware ADS-B
12:25AM 37.3126 -82.8244 70° East 515 593 39,000  Level FlightAware ADS-B
12:26AM 37.3759 -82.6015 70° East 515 593 39,000  Level FlightAware ADS-B
12:27AM 37.4002 -82.5150 71° East 515 593 39,000  Level FlightAware ADS-B
12:28AM 37.4340 -82.3930 71° East 514 592 39,000  Level FlightAware
12:28AM 37.4626 -82.2908 71° East 515 593 39,000  Level FlightAware ADS-B
12:29AM 37.5000 -82.1550 71° East 514 592 39,000  Level FlightAware
12:30AM 37.5240 -82.0700 70° East 513 590 39,000  Level FlightAware
12:30AM 37.5360 -82.0253 71° East 514 592 39,000  Level FlightAware ADS-B
12:30AM 37.5596 -81.9391 71° East 512 589 39,000  Level FlightAware ADS-B
12:31AM 37.5831 -81.8533 71° East 512 589 39,000  Level FlightAware ADS-B
12:31AM 37.6065 -81.7678 71° East 512 589 39,000  Level FlightAware ADS-B
12:32AM 37.6455 -81.6249 71° East 511 588 39,000  Level FlightAware ADS-B
12:33AM 37.6686 -81.5400 71° East 511 588 39,000  Level FlightAware ADS-B
12:33AM 37.6919 -81.4533 71° East 510 587 39,000  Level FlightAware ADS-B
12:33AM 37.6979 -81.4244 75° East 509 586 39,000  Level FlightAware ADS-B
12:34AM 37.7040 -81.2460 87° East 498 573 39,000 -240 Level FlightAware
12:35AM 37.7014 -81.1820 93° East 500 575 38,700 -960 Descending FlightAware ADS-B
12:36AM 37.6961 -81.0375 93° East 497 572 37,900 -1,020 Descending FlightAware ADS-B
12:36AM 37.6900 -80.8770 93° East 505 581 37,000 -720 Descending FlightAware
12:37AM 37.6878 -80.8158 93° East 503 579 37,000  Level FlightAware ADS-B
12:38AM 37.6810 -80.6230 92° East 487 560 37,000  Level FlightAware
12:39AM 37.6750 -80.4950 93° East 491 565 37,000  Level FlightAware
12:39AM 37.6710 -80.3970 93° East 493 567 37,000 -240 Level FlightAware
12:40AM 37.6650 -80.2660 93° East 490 564 36,700 -480 Descending FlightAware
12:41AM 37.6600 -80.1140 92° East 484 557 36,200 -360 Descending FlightAware
12:42AM 37.6570 -80.0250 92° East 484 557 36,200  Level FlightAware
12:42AM 37.6540 -79.9070 92° East 484 557 36,200 -1,740 Level FlightAware
12:43AM 37.6430 -79.7650 96° East 474 545 33,800 -1,920 Descending FlightAware
12:44AM 37.6360 -79.6190 93° East 474 545 33,300 -300 Descending FlightAware
12:45AM 37.6320 -79.5070 93° East 474 545 33,300  Level FlightAware
12:45AM 37.6280 -79.4220 93° East 474 545 33,300 -2,340 Level FlightAware
12:46AM 37.6560 -79.3190 71° East 490 564 31,200 -2,760 Descending FlightAware
12:46AM 37.6840 -79.2010 73° East 487 560 30,500 -960 Descending FlightAware
12:47AM 37.7200 -79.0440 74° East 485 558 29,600 -1,020 Descending FlightAware
12:48AM 37.7610 -78.9380 64° Northeast 495 570 28,900 -1,080 Descending FlightAware
12:49AM 37.8060 -78.8300 62° Northeast 493 567 28,200 -1,020 Descending FlightAware
12:49AM 37.8460 -78.7350 62° Northeast 492 566 27,600 -1,020 Descending FlightAware
12:50AM 37.8950 -78.6120 63° Northeast 487 560 26,800 -1,080 Descending FlightAware
12:51AM 37.9350 -78.5090 64° Northeast 487 560 26,100 -1,020 Descending FlightAware
12:52AM 37.9740 -78.3990 66° East 482 555 25,400 -1,020 Descending FlightAware
12:52AM 38.0000 -78.2940 73° East 466 536 24,700 -1,080 Descending FlightAware
12:53AM 38.0260 -78.1790 74° East 453 521 23,900 -1,140 Descending FlightAware
12:54AM 38.0600 -78.0940 63° Northeast 451 519 23,200 -1,320 Descending FlightAware
12:54AM 38.1140 -78.0190 48° Northeast 422 486 22,300 -1,740 Descending FlightAware
12:55AM 38.1680 -77.9490 46° Northeast 415 478 20,900 -2,400 Descending FlightAware
12:56AM 38.2220 -77.8790 46° Northeast 422 486 19,100 -2,520 Descending FlightAware
12:56AM 38.2730 -77.8120 46° Northeast 410 472 17,700 -2,400 Descending FlightAware
12:57AM 38.3290 -77.7360 47° Northeast 397 457 15,800 -2,580 Descending FlightAware
12:58AM 38.3680 -77.6560 58° Northeast 385 443 14,100 -2,520 Descending FlightAware
12:58AM 38.4060 -77.5760 59° Northeast 366 421 12,400 -1,920 Descending FlightAware
12:59AM 38.4420 -77.5000 59° Northeast 333 383 11,400 -1,380 Descending FlightAware
01:00AM 38.4730 -77.4350 59° Northeast 309 356 10,500 -1,440 Descending FlightAware
01:00AM 38.4940 -77.3930 57° Northeast 299 344 9,800 -1,740 Descending FlightAware
01:01AM 38.5110 -77.3580 58° Northeast 296 341 9,000 -1,800 Descending FlightAware
01:01AM 38.5290 -77.3230 57° Northeast 289 333 8,400 -1,020 Descending FlightAware
01:01AM 38.5490 -77.2860 55° Northeast 266 306 8,100 -1,020 Descending FlightAware
01:02AM 38.5680 -77.2500 56° Northeast 247 284 7,500 -1,800 Descending FlightAware
01:02AM 38.5860 -77.2150 57° Northeast 237 273 6,400 -1,920 Descending FlightAware
01:03AM 38.6020 -77.1830 57° Northeast 223 257 5,700 -1,320 Descending FlightAware
01:03AM 38.6180 -77.1530 56° Northeast 209 241 5,200 -1,320 Descending FlightAware
01:04AM 38.6330 -77.1230 57° Northeast 206 237 4,500 -1,500 Descending FlightAware
01:04AM 38.6460 -77.0950 59° Northeast 206 237 3,800 -1,500 Descending FlightAware
01:05AM 38.6600 -77.0660 58° Northeast 206 237 3,100 -1,320 Descending FlightAware
01:05AM 38.6760 -77.0390 53° Northeast 200 230 2,600 -900 Descending FlightAware
01:05AM 38.6860 -77.0340 21° North 199 229 2,500 -480 Descending FlightAware
01:06AM 38.7200 -77.0270 North 200 230 2,200 -480 Descending FlightAware